Huvudsida
METAR-TAF:

METAR-TAF

Flygplatser :

Menorcas flygplats

Menorca, Spanien

latitud: 39-52N, longitud: 004-14E, höjd: 87 m

Aktuellt väderrapport

Denna rapport gjordes för 35 minuter sedan, klockan 05:30 UTC
Vind 1 kt varierande vindriktning
Temperatur 22°C
Fuktighet 83%
Tryck 1020 hPa
Sikt 10 km eller mer
Inga moln under 1 500 m eller inga cumulonimbus

METAR: LEMH 230530Z VRB01KT CAVOK 22/19 Q1020

Tid: 08:05 (06:05 UTC)

Väderprognos

Denna rapport gjordes för 4 timmar och 5 minuter sedan, klockan 02:00 UTC
Prognos gäller från 23 kl. 03 UTC till 24 kl. 03 UTC
Vind 8 kt från nord
Sikt 10 km eller mer
Få moln på en höjd av 2500 ft
Blir
från 23 kl. 09 UTC till 23 kl. 11 UTC
Vind 11 kt från väst
Blir
från 23 kl. 18 UTC till 23 kl. 20 UTC
Vind 6 kt från nordväst

TAF: LEMH 230200Z 2303/2403 35008KT 9999 FEW025 TX31/2313Z TN21/2305Z BECMG 2309/2311 26011KT BECMG 2318/2320 31006KT

Aktuella väderrapporter och prognoser från 4000 flygplatser (METAR- och TAF-rapporter).

De tillgängliga stationerna syns som gula och röda prickar på kartan.

För musen över prickarna för att se namnen på stationerna.

Klicka sedan för att få väderrapporter och prognoser.

För att ändra kartan: Klicka på de gröna knapparna med ett svart kors på för att zooma in; den gröna knappen med ett streck på för att zooma ut; eller på de gröna pilarna för angränsande kartor.


METAR-TAF: